createdAt,value
2019-03-03T00:00:37.912Z,8.00
2019-03-03T00:01:37.860Z,8.02
2019-03-03T00:02:37.940Z,8.10
2019-03-03T00:03:37.860Z,8.06
2019-03-03T00:04:37.887Z,8.13
2019-03-03T00:05:37.824Z,8.13
2019-03-03T00:06:37.803Z,8.03
2019-03-03T00:07:37.889Z,8.03
2019-03-03T00:08:37.794Z,8.00
2019-03-03T00:09:37.828Z,8.18
2019-03-03T00:10:37.767Z,8.13
2019-03-03T00:11:37.756Z,8.12
2019-03-03T00:12:38.847Z,8.17
2019-03-03T00:13:37.750Z,8.10
2019-03-03T00:14:37.759Z,8.02
2019-03-03T00:15:37.707Z,8.03
2019-03-03T00:16:37.707Z,8.18
2019-03-03T00:17:37.758Z,8.21
2019-03-03T00:18:37.697Z,8.18
2019-03-03T00:19:37.702Z,8.18
2019-03-03T00:20:37.652Z,8.20
2019-03-03T00:21:38.657Z,8.21
2019-03-03T00:22:37.632Z,8.18
2019-03-03T00:23:37.713Z,8.20
2019-03-03T00:24:37.605Z,8.20
2019-03-03T00:25:39.825Z,8.13
2019-03-03T00:26:37.589Z,8.13
2019-03-03T00:27:37.578Z,8.12
2019-03-03T00:28:37.655Z,8.12
2019-03-03T00:29:37.559Z,8.12
2019-03-03T00:30:37.658Z,8.18
2019-03-03T00:31:37.531Z,8.14
2019-03-03T00:32:37.521Z,8.18
2019-03-03T00:33:37.603Z,8.18
2019-03-03T00:34:37.509Z,8.13
2019-03-03T00:35:37.600Z,8.14
2019-03-03T00:36:37.481Z,8.12
2019-03-03T00:37:37.462Z,8.09
2019-03-03T00:38:37.548Z,8.06
2019-03-03T00:39:37.449Z,8.06
2019-03-03T00:40:37.523Z,8.14
2019-03-03T00:41:37.416Z,8.17
2019-03-03T00:42:37.389Z,8.14
2019-03-03T00:43:37.409Z,8.18
2019-03-03T00:44:37.396Z,8.20
2019-03-03T00:45:37.386Z,8.13
2019-03-03T00:46:37.439Z,8.12
2019-03-03T00:47:37.353Z,8.07
2019-03-03T00:48:37.353Z,8.02
2019-03-03T00:49:37.440Z,8.04
2019-03-03T00:50:37.321Z,8.10
2019-03-03T00:51:37.375Z,8.03
2019-03-03T00:52:37.281Z,8.07
2019-03-03T00:53:37.292Z,8.12
2019-03-03T00:54:37.389Z,8.03
2019-03-03T00:55:37.265Z,8.00
2019-03-03T00:56:37.316Z,8.04
2019-03-03T00:57:37.235Z,8.03
2019-03-03T00:58:37.239Z,8.10
2019-03-03T00:59:44.066Z,8.06
2019-03-03T01:00:37.200Z,8.10
2019-03-03T01:01:37.283Z,8.02
2019-03-03T01:02:37.182Z,8.06
2019-03-03T01:03:37.178Z,8.09
2019-03-03T01:04:37.152Z,8.07
2019-03-03T01:05:37.231Z,8.04
2019-03-03T01:06:37.132Z,7.92
2019-03-03T01:07:37.185Z,7.95
2019-03-03T01:08:37.122Z,7.99
2019-03-03T01:09:37.094Z,8.00
2019-03-03T01:10:37.165Z,7.96
2019-03-03T01:11:37.075Z,7.86
2019-03-03T01:12:37.126Z,7.85
2019-03-03T01:13:37.065Z,7.96
2019-03-03T01:14:37.036Z,7.89
2019-03-03T01:15:37.112Z,7.91
2019-03-03T01:16:37.017Z,7.96
2019-03-03T01:17:37.039Z,7.91
2019-03-03T01:18:37.008Z,7.99
2019-03-03T01:19:36.978Z,7.94
2019-03-03T01:20:36.978Z,7.84
2019-03-03T01:21:37.010Z,7.91
2019-03-03T01:22:36.954Z,7.99
2019-03-03T01:23:37.001Z,7.95
2019-03-03T01:24:36.931Z,7.99
2019-03-03T01:25:36.984Z,7.99
2019-03-03T01:26:36.911Z,7.95
2019-03-03T01:27:36.919Z,7.96
2019-03-03T01:28:36.893Z,7.84
2019-03-03T01:29:36.909Z,7.88
2019-03-03T01:30:36.876Z,7.94
2019-03-03T01:31:36.893Z,8.04
2019-03-03T01:32:36.846Z,8.00
2019-03-03T01:33:36.929Z,8.06
2019-03-03T01:34:36.832Z,8.06
2019-03-03T01:35:36.809Z,8.03
2019-03-03T01:36:36.779Z,7.88
2019-03-03T01:37:36.812Z,7.95
2019-03-03T01:38:36.761Z,8.07
2019-03-03T01:39:36.873Z,8.04
2019-03-03T01:40:36.793Z,7.99
2019-03-03T01:41:36.749Z,8.04
2019-03-03T01:42:43.599Z,7.99
2019-03-03T01:43:36.705Z,8.03
2019-03-03T01:44:37.750Z,8.04
2019-03-03T01:45:36.689Z,8.14
2019-03-03T01:46:36.712Z,8.12
2019-03-03T01:47:36.668Z,8.13
2019-03-03T01:48:36.748Z,8.04
2019-03-03T01:49:36.649Z,8.06
2019-03-03T01:50:36.678Z,8.09
2019-03-03T01:51:36.620Z,8.09
2019-03-03T01:52:36.722Z,8.12
2019-03-03T01:53:36.590Z,8.06
2019-03-03T01:54:36.701Z,8.04
2019-03-03T01:55:36.574Z,8.06
2019-03-03T01:56:36.562Z,7.88
2019-03-03T01:57:36.553Z,7.84
2019-03-03T01:58:37.659Z,7.91
2019-03-03T01:59:36.534Z,7.81
2019-03-03T02:00:37.589Z,7.70
2019-03-03T02:01:36.507Z,7.67
2019-03-03T02:02:36.600Z,7.81
2019-03-03T02:03:36.496Z,7.81
2019-03-03T02:04:37.598Z,7.91
2019-03-03T02:05:36.458Z,7.95
2019-03-03T02:06:36.469Z,8.04
2019-03-03T02:07:36.442Z,8.04
2019-03-03T02:08:36.511Z,8.12
2019-03-03T02:09:36.432Z,8.13
2019-03-03T02:10:36.444Z,8.03
2019-03-03T02:11:36.393Z,8.13
2019-03-03T02:12:36.387Z,8.18
2019-03-03T02:13:36.376Z,8.12
2019-03-03T02:14:36.473Z,8.18
2019-03-03T02:15:36.355Z,8.17
2019-03-03T02:16:36.348Z,8.27
2019-03-03T02:17:36.333Z,8.36
2019-03-03T02:18:36.320Z,8.34
2019-03-03T02:19:36.415Z,8.27
2019-03-03T02:20:36.301Z,8.37
2019-03-03T02:21:36.300Z,8.34
2019-03-03T02:22:36.272Z,8.32
2019-03-03T02:23:36.262Z,8.28
2019-03-03T02:24:40.642Z,8.32
2019-03-03T02:25:36.243Z,8.45
2019-03-03T02:26:36.331Z,8.40
2019-03-03T02:27:36.203Z,8.43
2019-03-03T02:28:36.194Z,8.37
2019-03-03T02:29:36.204Z,8.39
2019-03-03T02:30:36.208Z,8.42
2019-03-03T02:31:36.167Z,8.47
2019-03-03T02:32:36.237Z,8.43
2019-03-03T02:33:36.140Z,8.47
2019-03-03T02:34:36.151Z,8.40
2019-03-03T02:35:36.145Z,8.39
2019-03-03T02:36:36.108Z,8.34
2019-03-03T02:37:36.181Z,8.43
2019-03-03T02:38:36.093Z,8.39
2019-03-03T02:39:36.097Z,8.45
2019-03-03T02:40:36.109Z,8.42
2019-03-03T02:41:36.054Z,8.49
2019-03-03T02:42:36.128Z,8.50
2019-03-03T02:43:36.035Z,8.50
2019-03-03T02:44:36.035Z,8.57
2019-03-03T02:45:36.004Z,8.47
2019-03-03T02:46:36.085Z,8.50
2019-03-03T02:47:35.987Z,8.50
2019-03-03T02:48:36.030Z,8.43
2019-03-03T02:49:37.076Z,8.39
2019-03-03T02:50:35.948Z,8.37
2019-03-03T02:51:36.028Z,8.40
2019-03-03T02:52:35.932Z,8.36
2019-03-03T02:53:35.969Z,8.47
2019-03-03T02:54:35.945Z,8.49
2019-03-03T02:55:36.001Z,8.52
2019-03-03T02:56:35.882Z,8.54
2019-03-03T02:57:36.962Z,8.54
2019-03-03T02:58:35.865Z,8.52
2019-03-03T02:59:36.945Z,8.52
2019-03-03T03:00:35.843Z,8.64
2019-03-03T03:01:35.920Z,8.64
2019-03-03T03:02:35.831Z,8.55
2019-03-03T03:03:35.851Z,8.54
2019-03-03T03:04:35.807Z,8.54
2019-03-03T03:05:35.790Z,8.50
2019-03-03T03:06:35.769Z,8.49
2019-03-03T03:07:37.862Z,8.43
2019-03-03T03:08:35.752Z,8.49
2019-03-03T03:09:36.832Z,8.52
2019-03-03T03:10:35.733Z,8.57
2019-03-03T03:11:36.818Z,8.61
2019-03-03T03:12:35.704Z,8.57
2019-03-03T03:13:35.727Z,8.57
2019-03-03T03:14:35.697Z,8.54
2019-03-03T03:15:36.690Z,8.43
2019-03-03T03:16:35.654Z,8.49
2019-03-03T03:17:35.696Z,8.50
2019-03-03T03:18:35.678Z,8.50
2019-03-03T03:19:35.702Z,8.55
2019-03-03T03:20:35.606Z,8.50
2019-03-03T03:21:35.599Z,8.50
2019-03-03T03:22:35.599Z,8.54
2019-03-03T03:23:35.598Z,8.50
2019-03-03T03:24:35.584Z,8.45
2019-03-03T03:25:36.672Z,8.50
2019-03-03T03:26:35.621Z,8.46
2019-03-03T03:27:35.530Z,8.46
2019-03-03T03:28:35.547Z,8.46
2019-03-03T03:29:35.507Z,8.60
2019-03-03T03:30:35.624Z,8.47
2019-03-03T03:31:35.493Z,8.49
2019-03-03T03:32:35.516Z,8.47
2019-03-03T03:33:35.467Z,8.52
2019-03-03T03:34:35.556Z,8.57
2019-03-03T03:35:35.457Z,8.52
2019-03-03T03:36:36.851Z,8.50
2019-03-03T03:37:35.413Z,8.55
2019-03-03T03:38:36.459Z,8.49
2019-03-03T03:39:35.413Z,8.46
2019-03-03T03:40:36.438Z,8.46
2019-03-03T03:41:35.370Z,8.47
2019-03-03T03:42:35.362Z,8.49
2019-03-03T03:43:35.461Z,8.46
2019-03-03T03:44:35.344Z,8.46
2019-03-03T03:45:35.443Z,8.32
2019-03-03T03:46:35.314Z,8.37
2019-03-03T03:47:35.316Z,8.29
2019-03-03T03:48:35.309Z,8.40
2019-03-03T03:49:35.459Z,8.39
2019-03-03T03:50:35.286Z,8.32
2019-03-03T03:51:35.309Z,8.32
2019-03-03T03:52:35.251Z,8.39
2019-03-03T03:53:35.349Z,8.34
2019-03-03T03:54:35.230Z,8.43
2019-03-03T03:55:35.320Z,8.37
2019-03-03T03:56:35.215Z,8.40
2019-03-03T03:57:35.213Z,8.50
2019-03-03T03:58:35.176Z,8.49
2019-03-03T03:59:35.255Z,8.54
2019-03-03T04:00:35.164Z,8.52
2019-03-03T04:01:35.198Z,8.52
2019-03-03T04:02:35.134Z,8.50
2019-03-03T04:03:35.113Z,8.49
2019-03-03T04:04:35.116Z,8.43
2019-03-03T04:05:35.211Z,8.49
2019-03-03T04:06:35.093Z,8.46
2019-03-03T04:07:35.199Z,8.49
2019-03-03T04:08:35.066Z,8.50
2019-03-03T04:09:36.153Z,8.52
2019-03-03T04:10:35.070Z,8.54
2019-03-03T04:11:35.069Z,8.45
2019-03-03T04:12:35.023Z,8.40
2019-03-03T04:13:35.102Z,8.39
2019-03-03T04:14:35.029Z,8.40
2019-03-03T04:15:36.102Z,8.47
2019-03-03T04:16:34.977Z,8.54
2019-03-03T04:17:35.072Z,8.47
2019-03-03T04:18:34.958Z,8.47
2019-03-03T04:19:34.935Z,8.57
2019-03-03T04:20:34.952Z,8.50
2019-03-03T04:21:34.946Z,8.55
2019-03-03T04:22:34.912Z,8.64
2019-03-03T04:23:34.986Z,8.63
2019-03-03T04:24:34.952Z,8.61
2019-03-03T04:25:34.892Z,8.63
2019-03-03T04:26:34.896Z,8.55
2019-03-03T04:27:34.857Z,8.63
2019-03-03T04:28:34.922Z,8.64
2019-03-03T04:29:34.832Z,8.61
2019-03-03T04:30:34.935Z,8.64
2019-03-03T04:31:34.805Z,8.52
2019-03-03T04:32:34.898Z,8.55
2019-03-03T04:33:34.793Z,8.46
2019-03-03T04:34:35.864Z,8.54
2019-03-03T04:35:34.847Z,8.52
2019-03-03T04:36:34.757Z,8.57
2019-03-03T04:37:36.783Z,8.55
2019-03-03T04:38:34.823Z,8.58
2019-03-03T04:39:34.768Z,8.60
2019-03-03T04:40:34.793Z,8.68
2019-03-03T04:41:34.706Z,8.58
2019-03-03T04:42:34.769Z,8.60
2019-03-03T04:43:34.678Z,8.64
2019-03-03T04:44:34.712Z,8.58
2019-03-03T04:45:35.742Z,8.58
2019-03-03T04:46:34.631Z,8.64
2019-03-03T04:47:34.712Z,8.64
2019-03-03T04:48:34.619Z,8.65
2019-03-03T04:49:34.644Z,8.64
2019-03-03T04:50:34.619Z,8.61
2019-03-03T04:51:34.685Z,8.64
2019-03-03T04:52:34.569Z,8.68
2019-03-03T04:53:34.621Z,8.64
2019-03-03T04:54:34.536Z,8.61
2019-03-03T04:55:34.600Z,8.64
2019-03-03T04:56:34.520Z,8.63
2019-03-03T04:57:34.599Z,8.60
2019-03-03T04:58:34.504Z,8.58
2019-03-03T04:59:34.534Z,8.52
2019-03-03T05:00:34.490Z,8.57
2019-03-03T05:01:34.466Z,8.50
2019-03-03T05:02:34.453Z,8.55
2019-03-03T05:03:34.510Z,8.57
2019-03-03T05:04:34.451Z,8.58
2019-03-03T05:05:34.484Z,8.68
2019-03-03T05:06:34.406Z,8.71
2019-03-03T05:07:34.476Z,8.75
2019-03-03T05:08:34.385Z,8.71
2019-03-03T05:09:34.416Z,8.68
2019-03-03T05:10:34.381Z,8.68
2019-03-03T05:11:34.449Z,8.64
2019-03-03T05:12:34.340Z,8.60
2019-03-03T05:13:34.389Z,8.71
2019-03-03T05:14:34.329Z,8.70
2019-03-03T05:15:34.369Z,8.71
2019-03-03T05:16:34.301Z,8.71
2019-03-03T05:17:34.294Z,8.58
2019-03-03T05:18:34.273Z,8.65
2019-03-03T05:19:34.293Z,8.60
2019-03-03T05:20:34.268Z,8.63
2019-03-03T05:21:34.340Z,8.63
2019-03-03T05:22:34.225Z,8.61
2019-03-03T05:23:34.265Z,8.60
2019-03-03T05:24:34.738Z,8.60
2019-03-03T05:25:34.259Z,8.54
2019-03-03T05:26:34.187Z,8.55
2019-03-03T05:27:34.237Z,8.57
2019-03-03T05:28:34.159Z,8.50
2019-03-03T05:29:34.176Z,8.50
2019-03-03T05:30:34.181Z,8.55
2019-03-03T05:31:34.217Z,8.68
2019-03-03T05:32:34.122Z,8.61
2019-03-03T05:33:34.103Z,8.67
2019-03-03T05:34:34.090Z,8.67
2019-03-03T05:35:34.186Z,8.63
2019-03-03T05:36:34.075Z,8.61
2019-03-03T05:37:34.129Z,8.63
2019-03-03T05:38:34.054Z,8.67
2019-03-03T05:39:34.055Z,8.58
2019-03-03T05:40:34.019Z,8.73
2019-03-03T05:41:34.137Z,8.71
2019-03-03T05:42:33.998Z,8.71
2019-03-03T05:43:34.028Z,8.65
2019-03-03T05:44:33.979Z,8.70
2019-03-03T05:45:34.069Z,8.70
2019-03-03T05:46:33.972Z,8.82
2019-03-03T05:47:34.001Z,8.70
2019-03-03T05:48:33.937Z,8.67
2019-03-03T05:49:33.929Z,8.70
2019-03-03T05:50:34.004Z,8.73
2019-03-03T05:51:33.916Z,8.75
2019-03-03T05:52:33.944Z,8.71
2019-03-03T05:53:33.880Z,8.61
2019-03-03T05:54:33.866Z,8.70
2019-03-03T05:55:33.859Z,8.70
2019-03-03T05:56:33.959Z,8.68
2019-03-03T05:57:33.828Z,8.63
2019-03-03T05:58:33.868Z,8.60
2019-03-03T05:59:33.811Z,8.70
2019-03-03T06:00:33.892Z,8.65
2019-03-03T06:01:33.801Z,8.63
2019-03-03T06:02:33.821Z,8.60
2019-03-03T06:03:33.762Z,8.68
2019-03-03T06:04:40.621Z,8.68
2019-03-03T06:05:33.742Z,8.64
2019-03-03T06:06:33.855Z,8.64
2019-03-03T06:07:33.730Z,8.55
2019-03-03T06:08:33.725Z,8.57
2019-03-03T06:09:33.698Z,8.52
2019-03-03T06:10:33.688Z,8.57
2019-03-03T06:11:33.687Z,8.49
2019-03-03T06:12:33.698Z,8.50
2019-03-03T06:13:33.675Z,8.49
2019-03-03T06:14:33.739Z,8.46
2019-03-03T06:15:33.706Z,8.54
2019-03-03T06:16:33.647Z,8.50
2019-03-03T06:17:33.641Z,8.50
2019-03-03T06:18:33.594Z,8.47
2019-03-03T06:19:34.602Z,8.52
2019-03-03T06:20:33.563Z,8.52
2019-03-03T06:21:33.572Z,8.58
2019-03-03T06:22:33.584Z,8.55
2019-03-03T06:23:33.535Z,8.47
2019-03-03T06:24:33.622Z,8.55
2019-03-03T06:25:33.507Z,8.58
2019-03-03T06:26:33.506Z,8.54
2019-03-03T06:27:33.492Z,8.50
2019-03-03T06:28:34.508Z,8.55
2019-03-03T06:29:33.474Z,8.52
2019-03-03T06:30:33.521Z,8.68
2019-03-03T06:31:33.542Z,8.61
2019-03-03T06:32:33.433Z,8.67
2019-03-03T06:33:34.452Z,8.61
2019-03-03T06:34:33.414Z,8.63
2019-03-03T06:35:33.464Z,8.63
2019-03-03T06:36:33.403Z,8.61
2019-03-03T06:37:33.375Z,8.64
2019-03-03T06:38:33.464Z,8.57
2019-03-03T06:39:33.356Z,8.70
2019-03-03T06:40:33.406Z,8.64
2019-03-03T06:41:33.348Z,8.61
2019-03-03T06:42:33.323Z,8.58
2019-03-03T06:43:33.308Z,8.70
2019-03-03T06:44:33.378Z,8.68
2019-03-03T06:45:33.288Z,8.82
2019-03-03T06:46:36.629Z,8.71
2019-03-03T06:47:33.261Z,8.71
2019-03-03T06:48:33.351Z,8.65
2019-03-03T06:49:33.241Z,8.82
2019-03-03T06:50:40.144Z,8.79
2019-03-03T06:51:33.251Z,8.80
2019-03-03T06:52:34.255Z,8.71
2019-03-03T06:53:34.212Z,8.73
2019-03-03T06:54:33.192Z,8.73
2019-03-03T06:55:33.228Z,8.76
2019-03-03T06:56:33.176Z,8.75
2019-03-03T06:57:34.186Z,8.76
2019-03-03T06:58:33.127Z,8.71
2019-03-03T06:59:33.185Z,8.76
2019-03-03T07:00:33.111Z,8.85
2019-03-03T07:01:33.197Z,8.88
2019-03-03T07:02:33.104Z,8.88
2019-03-03T07:03:33.093Z,8.79
2019-03-03T07:04:33.077Z,8.85
2019-03-03T07:05:33.107Z,8.80
2019-03-03T07:06:33.078Z,8.86
2019-03-03T07:07:33.148Z,8.88
2019-03-03T07:08:33.030Z,8.89
2019-03-03T07:09:33.079Z,8.80
2019-03-03T07:10:33.009Z,8.83
2019-03-03T07:11:33.051Z,8.80
2019-03-03T07:12:32.978Z,8.85
2019-03-03T07:13:33.053Z,8.88
2019-03-03T07:14:32.961Z,8.93
2019-03-03T07:15:32.982Z,8.94
2019-03-03T07:16:32.944Z,8.96
2019-03-03T07:17:33.022Z,8.97
2019-03-03T07:18:32.903Z,8.89
2019-03-03T07:19:32.893Z,8.89
2019-03-03T07:20:32.914Z,8.94
2019-03-03T07:21:32.895Z,8.89
2019-03-03T07:22:32.952Z,8.96
2019-03-03T07:23:32.855Z,8.91
2019-03-03T07:24:32.846Z,9.03
2019-03-03T07:25:32.835Z,8.98
2019-03-03T07:26:32.877Z,9.03
2019-03-03T07:27:32.807Z,9.00
2019-03-03T07:28:32.878Z,9.06
2019-03-03T07:29:32.778Z,9.03
2019-03-03T07:30:32.798Z,9.03
2019-03-03T07:31:32.789Z,8.97
2019-03-03T07:32:32.828Z,8.98
2019-03-03T07:33:32.756Z,9.03
2019-03-03T07:34:32.779Z,8.98
2019-03-03T07:35:32.753Z,9.03
2019-03-03T07:36:32.720Z,9.03
2019-03-03T07:37:33.731Z,8.98
2019-03-03T07:38:32.685Z,9.00
2019-03-03T07:39:32.722Z,9.06
2019-03-03T07:40:32.687Z,9.08
2019-03-03T07:41:32.654Z,9.12
2019-03-03T07:42:32.765Z,9.15
2019-03-03T07:43:32.644Z,9.04
2019-03-03T07:44:32.653Z,9.10
2019-03-03T07:45:32.624Z,9.12
2019-03-03T07:46:32.696Z,9.17
2019-03-03T07:47:32.605Z,9.22
2019-03-03T07:48:32.626Z,9.27
2019-03-03T07:49:32.569Z,9.30
2019-03-03T07:50:32.562Z,9.22
2019-03-03T07:51:32.546Z,9.20
2019-03-03T07:52:33.031Z,9.31
2019-03-03T07:53:32.508Z,9.22
2019-03-03T07:54:32.540Z,9.31
2019-03-03T07:55:32.486Z,9.19
2019-03-03T07:56:32.479Z,9.30
2019-03-03T07:57:32.564Z,9.35
2019-03-03T07:58:32.461Z,9.30
2019-03-03T07:59:32.472Z,9.22
2019-03-03T08:00:32.440Z,9.27
2019-03-03T08:01:32.421Z,9.30
2019-03-03T08:02:32.428Z,9.23
2019-03-03T08:03:32.443Z,9.26
2019-03-03T08:04:32.395Z,9.23
2019-03-03T08:05:32.484Z,9.30
2019-03-03T08:06:32.457Z,9.30
2019-03-03T08:07:32.362Z,9.31
2019-03-03T08:08:33.415Z,9.38
2019-03-03T08:09:32.334Z,9.23
2019-03-03T08:10:32.445Z,9.23
2019-03-03T08:11:32.385Z,9.30
2019-03-03T08:12:32.317Z,9.20
2019-03-03T08:13:32.330Z,9.19
2019-03-03T08:14:32.277Z,9.26
2019-03-03T08:15:33.289Z,9.31
2019-03-03T08:16:32.258Z,9.30
2019-03-03T08:17:32.238Z,9.30
2019-03-03T08:18:32.272Z,9.19
2019-03-03T08:19:32.260Z,9.30
2019-03-03T08:20:32.310Z,9.22
2019-03-03T08:21:32.201Z,9.22
2019-03-03T08:22:32.204Z,9.22
2019-03-03T08:23:32.181Z,9.30
2019-03-03T08:24:32.282Z,9.32
2019-03-03T08:25:32.162Z,9.26
2019-03-03T08:26:32.212Z,9.30
2019-03-03T08:27:32.153Z,9.32
2019-03-03T08:28:32.116Z,9.37
2019-03-03T08:29:33.143Z,9.32
2019-03-03T08:30:32.097Z,9.34
2019-03-03T08:31:32.154Z,9.31
2019-03-03T08:32:32.106Z,9.37
2019-03-03T08:33:32.076Z,9.37
2019-03-03T08:34:32.150Z,9.26
2019-03-03T08:35:32.047Z,9.38
2019-03-03T08:36:32.190Z,9.37
2019-03-03T08:37:32.040Z,9.27
2019-03-03T08:38:32.122Z,9.34
2019-03-03T08:39:31.999Z,9.35
2019-03-03T08:40:32.069Z,9.23
2019-03-03T08:41:31.964Z,9.23
2019-03-03T08:42:32.037Z,9.35
2019-03-03T08:43:31.950Z,9.34
2019-03-03T08:44:31.942Z,9.38
2019-03-03T08:45:31.921Z,9.24
2019-03-03T08:46:31.966Z,9.32
2019-03-03T08:47:31.921Z,9.40
2019-03-03T08:48:33.962Z,9.35
2019-03-03T08:49:31.877Z,9.30
2019-03-03T08:50:31.952Z,9.32
2019-03-03T08:51:31.853Z,9.32
2019-03-03T08:52:31.874Z,9.38
2019-03-03T08:53:31.832Z,9.31
2019-03-03T08:54:31.914Z,9.32
2019-03-03T08:55:31.819Z,9.27
2019-03-03T08:56:31.875Z,9.34
2019-03-03T08:57:31.805Z,9.27
2019-03-03T08:58:31.890Z,9.30
2019-03-03T08:59:31.779Z,9.26
2019-03-03T09:00:31.756Z,9.30
2019-03-03T09:01:31.767Z,9.24
2019-03-03T09:02:33.846Z,9.31
2019-03-03T09:03:31.719Z,9.31
2019-03-03T09:04:31.808Z,9.31
2019-03-03T09:05:31.701Z,9.30
2019-03-03T09:06:31.730Z,9.26
2019-03-03T09:07:31.691Z,9.31
2019-03-03T09:08:31.775Z,9.41
2019-03-03T09:09:31.653Z,9.40
2019-03-03T09:10:31.644Z,9.45
2019-03-03T09:11:31.672Z,9.34
2019-03-03T09:12:31.634Z,9.42
2019-03-03T09:13:31.704Z,9.44
2019-03-03T09:14:31.650Z,9.35
2019-03-03T09:15:32.665Z,9.40
2019-03-03T09:16:31.607Z,9.40
2019-03-03T09:17:31.578Z,9.42
2019-03-03T09:18:31.655Z,9.35
2019-03-03T09:19:31.538Z,9.37
2019-03-03T09:20:31.586Z,9.34
2019-03-03T09:21:31.525Z,9.41
2019-03-03T09:22:31.577Z,9.38
2019-03-03T09:23:31.501Z,9.40
2019-03-03T09:24:31.558Z,9.34
2019-03-03T09:25:31.473Z,9.40
2019-03-03T09:26:31.483Z,9.41
2019-03-03T09:27:31.456Z,9.38
2019-03-03T09:28:31.537Z,9.24
2019-03-03T09:29:31.443Z,9.24
2019-03-03T09:30:31.466Z,9.37
2019-03-03T09:31:31.401Z,9.30
2019-03-03T09:32:31.412Z,9.35
2019-03-03T09:33:31.381Z,9.35
2019-03-03T09:34:31.382Z,9.42
2019-03-03T09:35:31.369Z,9.42
2019-03-03T09:36:31.369Z,9.38
2019-03-03T09:37:31.484Z,9.34
2019-03-03T09:38:31.324Z,9.42
2019-03-03T09:39:31.346Z,9.44
2019-03-03T09:40:31.308Z,9.53
2019-03-03T09:41:31.295Z,9.53
2019-03-03T09:42:31.274Z,9.52
2019-03-03T09:43:31.394Z,9.55
2019-03-03T09:44:31.254Z,9.65
2019-03-03T09:45:31.275Z,9.65
2019-03-03T09:46:31.278Z,9.68
2019-03-03T09:47:33.266Z,9.68
2019-03-03T09:48:31.228Z,9.73
2019-03-03T09:49:32.277Z,9.73
2019-03-03T09:50:31.193Z,9.80
2019-03-03T09:51:31.190Z,9.78
2019-03-03T09:52:31.159Z,9.78
2019-03-03T09:53:31.170Z,9.81
2019-03-03T09:54:31.141Z,9.86
2019-03-03T09:55:31.162Z,9.80
2019-03-03T09:56:31.124Z,9.89
2019-03-03T09:57:31.193Z,9.78
2019-03-03T09:58:31.114Z,9.75
2019-03-03T09:59:32.155Z,9.78
2019-03-03T10:00:31.087Z,9.77
2019-03-03T10:01:31.166Z,9.73
2019-03-03T10:02:31.056Z,9.71
2019-03-03T10:03:31.145Z,9.74
2019-03-03T10:04:31.034Z,9.75
2019-03-03T10:05:31.039Z,9.77
2019-03-03T10:06:31.008Z,9.80
2019-03-03T10:07:31.080Z,9.70
2019-03-03T10:08:31.003Z,9.75
2019-03-03T10:09:30.971Z,9.77
2019-03-03T10:10:30.962Z,9.67
2019-03-03T10:11:31.054Z,9.78
2019-03-03T10:12:30.952Z,9.85
2019-03-03T10:13:31.040Z,9.63
2019-03-03T10:14:30.925Z,9.75
2019-03-03T10:15:30.927Z,9.65
2019-03-03T10:16:30.895Z,9.70
2019-03-03T10:17:30.955Z,9.73
2019-03-03T10:18:30.876Z,9.70
2019-03-03T10:19:30.862Z,9.63
2019-03-03T10:20:30.963Z,9.67
2019-03-03T10:21:30.829Z,9.67
2019-03-03T10:22:30.898Z,9.68
2019-03-03T10:23:30.819Z,9.74
2019-03-03T10:24:30.804Z,9.81
2019-03-03T10:25:30.790Z,9.62
2019-03-03T10:26:31.891Z,9.63
2019-03-03T10:27:30.790Z,9.67
2019-03-03T10:28:30.846Z,9.77
2019-03-03T10:29:30.743Z,9.77
2019-03-03T10:30:30.738Z,9.77
2019-03-03T10:31:30.807Z,9.83
2019-03-03T10:32:30.704Z,9.83
2019-03-03T10:33:34.118Z,9.77
2019-03-03T10:34:30.687Z,9.81
2019-03-03T10:35:30.680Z,9.78
2019-03-03T10:36:30.755Z,9.77
2019-03-03T10:37:30.649Z,9.83
2019-03-03T10:38:36.372Z,9.80
2019-03-03T10:39:30.642Z,9.75
2019-03-03T10:40:30.620Z,9.75
2019-03-03T10:41:30.610Z,9.81
2019-03-03T10:42:32.705Z,9.73
2019-03-03T10:43:30.603Z,9.85
2019-03-03T10:44:37.143Z,9.80
2019-03-03T10:45:30.566Z,9.75
2019-03-03T10:46:37.134Z,9.78
2019-03-03T10:47:30.556Z,9.74
2019-03-03T10:48:32.647Z,9.78
2019-03-03T10:49:30.518Z,9.77
2019-03-03T10:50:37.148Z,9.74
2019-03-03T10:51:32.586Z,9.77
2019-03-03T10:52:31.559Z,9.78
2019-03-03T10:53:30.488Z,9.88
2019-03-03T10:54:30.573Z,9.80
2019-03-03T10:55:30.439Z,9.80
2019-03-03T10:56:30.440Z,9.75
2019-03-03T10:57:30.509Z,9.75
2019-03-03T10:58:30.491Z,9.86
2019-03-03T10:59:30.420Z,9.83
2019-03-03T11:00:30.499Z,9.77
2019-03-03T11:01:30.384Z,9.83
2019-03-03T11:02:31.403Z,9.85
2019-03-03T11:03:30.375Z,9.86
2019-03-03T11:04:30.422Z,9.86
2019-03-03T11:05:30.340Z,9.89
2019-03-03T11:06:30.390Z,9.96
2019-03-03T11:07:30.315Z,9.93
2019-03-03T11:08:33.604Z,9.86
2019-03-03T11:09:30.289Z,9.91
2019-03-03T11:10:30.325Z,9.88
2019-03-03T11:11:30.261Z,9.93
2019-03-03T11:12:30.250Z,9.83
2019-03-03T11:13:35.737Z,9.89
2019-03-03T11:14:30.237Z,9.92
2019-03-03T11:15:30.318Z,9.96
2019-03-03T11:16:30.206Z,9.99
2019-03-03T11:17:30.201Z,9.98
2019-03-03T11:18:30.205Z,10.09
2019-03-03T11:19:31.302Z,10.06
2019-03-03T11:20:30.168Z,10.02
2019-03-03T11:21:37.168Z,10.13
2019-03-03T11:22:30.140Z,10.11
2019-03-03T11:23:30.290Z,10.10
2019-03-03T11:24:31.823Z,10.13
2019-03-03T11:25:30.182Z,10.13
2019-03-03T11:26:30.105Z,10.22
2019-03-03T11:27:31.142Z,10.13
2019-03-03T11:28:30.091Z,10.10
2019-03-03T11:29:32.194Z,10.24
2019-03-03T11:30:30.054Z,10.16
2019-03-03T11:31:30.205Z,10.25
2019-03-03T11:32:30.035Z,10.18
2019-03-03T11:33:30.035Z,10.20
2019-03-03T11:34:29.996Z,10.20
2019-03-03T11:35:44.696Z,10.22
2019-03-03T11:36:29.989Z,10.32
2019-03-03T11:37:31.118Z,10.36
2019-03-03T11:38:30.078Z,10.39
2019-03-03T11:39:29.965Z,10.43
2019-03-03T11:40:30.011Z,10.44
2019-03-03T11:41:29.931Z,10.52
2019-03-03T11:42:31.070Z,10.49
2019-03-03T11:43:29.991Z,10.52
2019-03-03T11:44:29.894Z,10.46
2019-03-03T11:45:30.971Z,10.51
2019-03-03T11:46:29.882Z,10.49
2019-03-03T11:47:36.605Z,10.42
2019-03-03T11:48:29.863Z,10.44
2019-03-03T11:49:29.855Z,10.42
2019-03-03T11:50:29.847Z,10.54
2019-03-03T11:51:29.822Z,10.49
2019-03-03T11:52:30.914Z,10.58
2019-03-03T11:53:29.798Z,10.52
2019-03-03T11:54:29.799Z,10.57
2019-03-03T11:55:29.775Z,10.66
2019-03-03T11:56:31.833Z,10.68
2019-03-03T11:57:29.757Z,10.72
2019-03-03T11:58:44.635Z,10.70
2019-03-03T11:59:29.747Z,10.70
2019-03-03T12:00:44.703Z,10.69
2019-03-03T12:01:29.705Z,10.73
2019-03-03T12:02:29.824Z,10.69
2019-03-03T12:03:29.678Z,10.65
2019-03-03T12:04:29.778Z,10.65
2019-03-03T12:05:29.662Z,10.72
2019-03-03T12:06:31.710Z,10.65
2019-03-03T12:07:29.631Z,10.70
2019-03-03T12:08:29.701Z,10.68
2019-03-03T12:09:29.617Z,10.63
2019-03-03T12:10:29.599Z,10.70
2019-03-03T12:11:29.579Z,10.68
2019-03-03T12:12:29.650Z,10.75
2019-03-03T12:13:29.562Z,10.66
2019-03-03T12:14:38.124Z,10.69
2019-03-03T12:15:29.685Z,10.73
2019-03-03T12:16:29.525Z,10.63
2019-03-03T12:17:29.615Z,10.80
2019-03-03T12:18:29.510Z,10.73
2019-03-03T12:19:31.655Z,10.73
2019-03-03T12:20:29.488Z,10.66
2019-03-03T12:21:31.537Z,10.69
2019-03-03T12:22:29.458Z,10.66
2019-03-03T12:23:30.548Z,10.66
2019-03-03T12:24:29.465Z,10.72
2019-03-03T12:25:29.564Z,10.75
2019-03-03T12:26:29.529Z,10.72
2019-03-03T12:27:29.410Z,10.78
2019-03-03T12:28:31.491Z,10.84
2019-03-03T12:29:29.401Z,10.72
2019-03-03T12:30:36.142Z,10.70
2019-03-03T12:31:29.466Z,10.83
2019-03-03T12:32:29.355Z,10.70
2019-03-03T12:33:29.414Z,10.80
2019-03-03T12:34:29.354Z,10.72
2019-03-03T12:35:30.355Z,10.81
2019-03-03T12:36:29.388Z,10.70
2019-03-03T12:37:29.306Z,10.72
2019-03-03T12:38:37.125Z,10.80
2019-03-03T12:39:29.296Z,10.81
2019-03-03T12:40:31.309Z,10.75
2019-03-03T12:41:29.253Z,10.86
2019-03-03T12:42:29.247Z,10.93
2019-03-03T12:43:29.326Z,10.90
2019-03-03T12:44:29.231Z,10.98
2019-03-03T12:45:29.322Z,11.01
2019-03-03T12:46:29.192Z,11.03
2019-03-03T12:47:29.184Z,10.98
2019-03-03T12:48:29.175Z,11.02
2019-03-03T12:49:29.231Z,11.08
2019-03-03T12:50:29.145Z,11.12
2019-03-03T12:51:29.227Z,11.06
2019-03-03T12:52:29.203Z,11.08
2019-03-03T12:53:29.109Z,11.06
2019-03-03T12:54:29.170Z,11.11
2019-03-03T12:55:29.098Z,11.13
2019-03-03T12:56:29.168Z,11.13
2019-03-03T12:57:29.059Z,11.16
2019-03-03T12:58:29.101Z,11.16
2019-03-03T12:59:29.054Z,11.20
2019-03-03T13:00:29.146Z,11.16
2019-03-03T13:01:29.013Z,11.13
2019-03-03T13:02:31.107Z,11.17
2019-03-03T13:03:29.043Z,11.13
2019-03-03T13:04:28.997Z,11.13
2019-03-03T13:05:29.077Z,11.09
2019-03-03T13:06:30.437Z,10.94
2019-03-03T13:07:29.015Z,10.98
2019-03-03T13:08:28.966Z,10.95
2019-03-03T13:09:28.941Z,10.91
2019-03-03T13:10:29.009Z,10.86
2019-03-03T13:11:28.909Z,10.87
2019-03-03T13:12:29.982Z,10.94
2019-03-03T13:13:28.902Z,10.94
2019-03-03T13:14:28.891Z,10.90